Time;durP1;ratioP1;P1;durP2;ratioP2;P2;SDS_P1;SDS_P2;PMS_P1;PMS_P2;Temp;Humidity;BMP_temperature;BMP_pressure;BME280_temperature;BME280_humidity;BME280_pressure;Samples;Min_cycle;Max_cycle;Signal;HPM_P1;HPM_P2
2021/07/13 00:00:12;;;;;;;10.10;3.27;;;;;;;;;;5073066;28;20451;-68
2021/07/13 00:02:39;;;;;;;8.00;3.70;;;;;;;;;;5073928;28;20425;-69
2021/07/13 00:05:05;;;;;;;7.43;3.30;;;;;;;;;;5074878;28;20866;-68
2021/07/13 00:07:31;;;;;;;5.90;3.40;;;;;;;;;;5057416;28;20425;-68
2021/07/13 00:09:57;;;;;;;5.10;3.30;;;;;;;;;;5054417;28;20409;-68
2021/07/13 00:12:23;;;;;;;6.50;3.70;;;;;;;;;;5063385;28;20556;-68
2021/07/13 00:14:50;;;;;;;3.77;3.07;;;;;;;;;;5062697;28;20515;-68
2021/07/13 00:17:16;;;;;;;4.50;3.10;;;;;;;;;;5059627;28;20429;-67
2021/07/13 00:19:42;;;;;;;5.00;2.93;;;;;;;;;;5062745;28;20409;-68
2021/07/13 00:22:08;;;;;;;4.40;3.00;;;;;;;;;;5071528;28;20437;-68
2021/07/13 00:24:34;;;;;;;4.60;3.50;;;;;;;;;;5076746;28;20477;-68
2021/07/13 00:27:00;;;;;;;4.50;3.17;;;;;;;;;;5063198;28;20433;-68
2021/07/13 00:29:26;;;;;;;3.03;2.50;;;;;;;;;;5054964;28;20406;-68
2021/07/13 00:31:52;;;;;;;4.87;3.23;;;;;;;;;;5053603;28;20548;-67
2021/07/13 00:34:18;;;;;;;4.47;3.30;;;;;;;;;;5053157;28;20430;-68
2021/07/13 00:36:44;;;;;;;5.53;3.67;;;;;;;;;;5053553;28;20437;-68
2021/07/13 00:39:10;;;;;;;6.83;3.77;;;;;;;;;;5054174;28;20406;-68
2021/07/13 00:41:36;;;;;;;6.03;3.60;;;;;;;;;;5060162;28;20783;-68
2021/07/13 00:44:03;;;;;;;8.70;3.10;;;;;;;;;;5072727;28;20883;-68
2021/07/13 00:46:29;;;;;;;6.43;3.80;;;;;;;;;;5072011;28;20511;-68
2021/07/13 00:48:55;;;;;;;4.10;2.90;;;;;;;;;;5073955;28;20436;-68
2021/07/13 00:51:21;;;;;;;4.17;3.37;;;;;;;;;;5071692;28;20455;-68
2021/07/13 00:53:48;;;;;;;4.77;3.50;;;;;;;;;;5073735;28;20421;-68
2021/07/13 00:56:14;;;;;;;4.90;3.60;;;;;;;;;;5068846;28;20902;-67
2021/07/13 00:58:40;;;;;;;6.53;2.97;;;;;;;;;;5053675;28;20424;-68
2021/07/13 01:01:07;;;;;;;5.37;3.40;;;;;;;;;;5051180;28;20449;-67
2021/07/13 01:03:34;;;;;;;3.83;3.07;;;;;;;;;;5053494;28;20426;-67
2021/07/13 01:06:00;;;;;;;4.90;3.50;;;;;;;;;;5053204;28;20402;-68
2021/07/13 01:08:29;;;;;;;5.60;2.90;;;;;;;;;;5073548;28;20771;-68
2021/07/13 01:10:58;;;;;;;5.50;4.20;;;;;;;;;;5072053;28;20444;-68
2021/07/13 01:13:29;;;;;;;6.63;3.63;;;;;;;;;;5069205;28;20895;-68
2021/07/13 01:16:00;;;;;;;6.77;3.50;;;;;;;;;;5072310;28;20480;-68
2021/07/13 01:18:31;;;;;;;3.80;3.10;;;;;;;;;;5033586;28;20380;-68
2021/07/13 01:21:15;;;;;;;6.00;5.10;;;;;;;;;;5032317;28;20414;-68
2021/07/13 01:23:49;;;;;;;3.77;2.40;;;;;;;;;;5032855;28;20433;-68
2021/07/13 01:26:24;;;;;;;7.13;3.60;;;;;;;;;;5044026;28;20410;-68
2021/07/13 01:28:56;;;;;;;5.50;2.87;;;;;;;;;;5052296;28;20425;-69
2021/07/13 01:31:23;;;;;;;5.23;3.10;;;;;;;;;;5053501;28;20445;-68
2021/07/13 01:33:50;;;;;;;4.60;3.10;;;;;;;;;;5068599;28;20440;-68
2021/07/13 01:36:19;;;;;;;3.80;3.20;;;;;;;;;;5073357;28;20416;-68
2021/07/13 01:38:46;;;;;;;5.20;3.20;;;;;;;;;;5054044;28;20421;-68
2021/07/13 01:41:14;;;;;;;3.77;2.80;;;;;;;;;;5053194;28;20406;-68
2021/07/13 01:43:42;;;;;;;3.97;2.90;;;;;;;;;;5051939;28;20453;-68
2021/07/13 01:46:09;;;;;;;4.33;2.90;;;;;;;;;;5053317;28;20407;-68
2021/07/13 01:48:36;;;;;;;3.80;3.00;;;;;;;;;;5050930;28;20430;-68
2021/07/13 01:51:02;;;;;;;15.07;3.90;;;;;;;;;;5053016;28;20450;-68
2021/07/13 01:53:29;;;;;;;4.47;3.20;;;;;;;;;;5052061;28;20494;-68
2021/07/13 01:55:56;;;;;;;3.33;2.60;;;;;;;;;;5052972;28;20413;-68
2021/07/13 01:58:23;;;;;;;4.93;3.00;;;;;;;;;;5052144;28;20469;-68
2021/07/13 02:00:50;;;;;;;10.70;3.13;;;;;;;;;;5053007;28;20410;-68
2021/07/13 02:03:17;;;;;;;4.53;3.17;;;;;;;;;;5056230;28;20515;-68
2021/07/13 02:05:45;;;;;;;3.40;2.23;;;;;;;;;;5064656;28;20482;-68
2021/07/13 02:08:11;;;;;;;3.67;2.60;;;;;;;;;;5064966;28;20460;-68
2021/07/13 02:10:39;;;;;;;4.27;3.07;;;;;;;;;;5053416;28;20410;-68
2021/07/13 02:13:08;;;;;;;3.80;2.77;;;;;;;;;;5051527;28;20456;-68
2021/07/13 02:15:34;;;;;;;3.97;3.10;;;;;;;;;;5053019;28;20426;-68
2021/07/13 02:18:00;;;;;;;4.03;2.80;;;;;;;;;;5052058;28;20417;-68
2021/07/13 02:20:27;;;;;;;5.70;2.87;;;;;;;;;;5052659;28;20451;-68
2021/07/13 02:22:54;;;;;;;3.70;2.93;;;;;;;;;;5052167;28;20421;-68
2021/07/13 02:25:20;;;;;;;4.43;3.10;;;;;;;;;;5052743;28;20421;-68
2021/07/13 02:27:49;;;;;;;4.43;3.47;;;;;;;;;;5051703;28;20429;-68
2021/07/13 02:30:15;;;;;;;3.97;2.73;;;;;;;;;;5052607;28;20420;-68
2021/07/13 02:32:44;;;;;;;4.60;2.97;;;;;;;;;;5052659;28;20445;-68
2021/07/13 02:35:11;;;;;;;3.90;2.43;;;;;;;;;;5056487;28;20513;-68
2021/07/13 02:37:38;;;;;;;7.10;3.53;;;;;;;;;;5054957;28;20571;-68
2021/07/13 02:40:09;;;;;;;5.97;2.67;;;;;;;;;;5056536;28;20492;-68
2021/07/13 02:42:35;;;;;;;5.23;2.87;;;;;;;;;;5055475;28;20873;-70
2021/07/13 02:45:02;;;;;;;7.37;4.30;;;;;;;;;;5056254;28;20426;-68
2021/07/13 02:47:30;;;;;;;5.00;3.63;;;;;;;;;;5056282;28;20402;-69
2021/07/13 02:49:56;;;;;;;5.20;3.33;;;;;;;;;;5055747;28;20414;-68
2021/07/13 02:52:28;;;;;;;4.00;2.63;;;;;;;;;;5056133;28;20452;-69
2021/07/13 02:55:00;;;;;;;4.23;3.00;;;;;;;;;;5053244;28;20459;-68
2021/07/13 02:57:27;;;;;;;3.70;3.27;;;;;;;;;;5050580;28;20775;-69
2021/07/13 02:59:54;;;;;;;5.50;3.10;;;;;;;;;;5058904;28;20459;-69
2021/07/13 03:02:21;;;;;;;4.73;3.60;;;;;;;;;;5058023;28;20498;-69
2021/07/13 03:04:48;;;;;;;4.93;3.67;;;;;;;;;;5055109;28;20545;-69
2021/07/13 03:07:14;;;;;;;7.37;3.97;;;;;;;;;;5055912;28;20426;-69
2021/07/13 03:09:40;;;;;;;6.23;4.23;;;;;;;;;;5054403;28;20436;-70
2021/07/13 03:12:08;;;;;;;5.20;3.70;;;;;;;;;;5055429;28;20445;-69
2021/07/13 03:14:34;;;;;;;5.20;4.27;;;;;;;;;;5054717;28;20453;-68
2021/07/13 03:17:00;;;;;;;5.50;3.30;;;;;;;;;;5055965;28;20419;-68
2021/07/13 03:19:26;;;;;;;4.40;3.10;;;;;;;;;;5055115;28;20515;-69
2021/07/13 03:21:55;;;;;;;3.10;2.67;;;;;;;;;;5055725;28;20746;-68
2021/07/13 03:24:22;;;;;;;3.67;2.93;;;;;;;;;;5062269;28;20459;-69
2021/07/13 03:26:49;;;;;;;5.37;3.57;;;;;;;;;;5075754;28;20475;-68
2021/07/13 03:29:15;;;;;;;6.07;3.50;;;;;;;;;;5066815;28;20985;-70
2021/07/13 03:31:43;;;;;;;5.70;3.50;;;;;;;;;;5073058;28;20510;-67
2021/07/13 03:34:09;;;;;;;10.57;3.33;;;;;;;;;;5060736;28;21029;-68
2021/07/13 03:36:37;;;;;;;12.27;3.43;;;;;;;;;;5052133;28;20436;-69
2021/07/13 03:39:03;;;;;;;4.27;3.00;;;;;;;;;;5046132;28;20479;-68
2021/07/13 03:41:29;;;;;;;4.90;3.83;;;;;;;;;;5055282;28;20467;-68
2021/07/13 03:43:56;;;;;;;5.80;3.57;;;;;;;;;;5051802;28;20464;-67
2021/07/13 03:46:24;;;;;;;4.30;3.40;;;;;;;;;;5055181;28;20412;-68
2021/07/13 03:48:50;;;;;;;3.83;3.20;;;;;;;;;;5054212;28;20465;-67
2021/07/13 03:51:22;;;;;;;6.30;3.57;;;;;;;;;;5054903;28;20445;-67
2021/07/13 03:53:48;;;;;;;5.60;3.60;;;;;;;;;;5061703;28;20445;-68
2021/07/13 03:56:14;;;;;;;6.67;4.20;;;;;;;;;;5071416;28;20469;-68
2021/07/13 03:58:40;;;;;;;7.50;3.60;;;;;;;;;;5060874;28;20930;-68
2021/07/13 04:01:06;;;;;;;7.53;4.03;;;;;;;;;;5034964;28;20460;-68
2021/07/13 04:03:32;;;;;;;4.00;3.40;;;;;;;;;;5039474;28;20511;-68
2021/07/13 04:05:58;;;;;;;8.60;3.70;;;;;;;;;;5054843;28;20891;-68
2021/07/13 04:08:24;;;;;;;8.50;4.27;;;;;;;;;;5062423;28;20786;-68
2021/07/13 04:10:50;;;;;;;5.13;4.13;;;;;;;;;;5055005;28;20765;-68
2021/07/13 04:13:16;;;;;;;8.33;4.60;;;;;;;;;;5053534;28;20434;-68
2021/07/13 04:15:42;;;;;;;10.47;4.30;;;;;;;;;;5054710;28;20425;-68
2021/07/13 04:18:08;;;;;;;5.87;3.97;;;;;;;;;;5052882;28;20914;-68
2021/07/13 04:20:34;;;;;;;8.20;4.60;;;;;;;;;;5054856;28;20394;-68
2021/07/13 04:23:00;;;;;;;6.33;3.87;;;;;;;;;;5053737;28;20431;-68
2021/07/13 04:25:26;;;;;;;7.00;4.07;;;;;;;;;;5073749;28;20433;-68
2021/07/13 04:27:52;;;;;;;5.30;3.60;;;;;;;;;;5074495;28;20401;-68
2021/07/13 04:30:18;;;;;;;5.70;4.10;;;;;;;;;;5054698;28;20798;-68
2021/07/13 04:32:44;;;;;;;4.90;3.93;;;;;;;;;;5053819;28;20810;-69
2021/07/13 04:35:11;;;;;;;4.03;2.67;;;;;;;;;;5053852;28;20579;-67
2021/07/13 04:37:37;;;;;;;3.83;3.43;;;;;;;;;;5054254;28;20439;-67
2021/07/13 04:40:03;;;;;;;5.10;3.60;;;;;;;;;;5052977;28;20430;-67
2021/07/13 04:42:29;;;;;;;6.10;3.10;;;;;;;;;;5054094;28;20410;-67
2021/07/13 04:44:56;;;;;;;5.53;3.77;;;;;;;;;;5053196;28;20544;-68
2021/07/13 04:47:22;;;;;;;5.47;4.00;;;;;;;;;;5054179;28;20408;-68
2021/07/13 04:49:48;;;;;;;5.37;4.40;;;;;;;;;;5053154;28;20448;-68
2021/07/13 04:52:14;;;;;;;8.00;3.87;;;;;;;;;;5052933;28;20453;-68
2021/07/13 04:54:40;;;;;;;7.13;4.00;;;;;;;;;;5052959;28;20459;-68
2021/07/13 04:57:06;;;;;;;8.80;3.80;;;;;;;;;;5053989;28;20422;-68
2021/07/13 04:59:33;;;;;;;4.53;4.13;;;;;;;;;;5052866;28;20858;-67
2021/07/13 05:01:59;;;;;;;5.63;3.60;;;;;;;;;;5053956;28;20486;-67
2021/07/13 05:04:25;;;;;;;6.07;4.03;;;;;;;;;;5052573;28;20976;-67
2021/07/13 05:06:51;;;;;;;5.73;3.70;;;;;;;;;;5053886;28;20774;-67
2021/07/13 05:09:17;;;;;;;5.07;4.13;;;;;;;;;;5052826;28;20801;-67
2021/07/13 05:11:43;;;;;;;6.47;3.40;;;;;;;;;;5053896;28;20453;-67
2021/07/13 05:14:09;;;;;;;4.70;3.67;;;;;;;;;;5052371;28;20445;-68
2021/07/13 05:16:35;;;;;;;8.47;4.37;;;;;;;;;;5053799;28;20402;-68
2021/07/13 05:19:02;;;;;;;4.97;3.80;;;;;;;;;;5052588;28;20422;-68
2021/07/13 05:21:28;;;;;;;7.63;4.20;;;;;;;;;;5053770;28;20529;-68
2021/07/13 05:23:54;;;;;;;7.40;3.80;;;;;;;;;;5050623;28;20966;-68
2021/07/13 05:26:20;;;;;;;9.10;3.80;;;;;;;;;;5072832;28;20484;-68
2021/07/13 05:28:49;;;;;;;5.70;3.70;;;;;;;;;;5068772;28;20566;-68
2021/07/13 05:31:15;;;;;;;6.17;3.67;;;;;;;;;;5053045;28;20536;-68
2021/07/13 05:33:41;;;;;;;5.27;4.03;;;;;;;;;;5053384;28;20536;-68
2021/07/13 05:36:07;;;;;;;6.10;4.10;;;;;;;;;;5055246;28;20467;-67
2021/07/13 05:38:33;;;;;;;4.50;3.37;;;;;;;;;;5053478;28;20795;-67
2021/07/13 05:40:59;;;;;;;5.50;4.50;;;;;;;;;;5055137;28;20469;-68
2021/07/13 05:43:25;;;;;;;7.50;4.13;;;;;;;;;;5053073;28;20479;-68
2021/07/13 05:45:51;;;;;;;5.00;3.80;;;;;;;;;;5053284;28;20420;-68
2021/07/13 05:48:17;;;;;;;6.07;4.10;;;;;;;;;;5055518;28;20807;-68
2021/07/13 05:50:43;;;;;;;4.83;3.73;;;;;;;;;;5056742;28;20512;-68
2021/07/13 05:53:09;;;;;;;5.17;4.00;;;;;;;;;;5057125;28;20429;-69
2021/07/13 05:55:35;;;;;;;5.20;4.10;;;;;;;;;;5057504;28;20479;-68
2021/07/13 05:58:01;;;;;;;6.60;4.13;;;;;;;;;;5059832;28;20452;-69
2021/07/13 06:00:27;;;;;;;5.03;4.50;;;;;;;;;;5050015;28;20544;-69
2021/07/13 06:02:53;;;;;;;6.03;4.30;;;;;;;;;;5049990;28;20444;-68
2021/07/13 06:05:19;;;;;;;6.37;3.93;;;;;;;;;;5052403;28;20798;-69
2021/07/13 06:07:47;;;;;;;6.33;4.63;;;;;;;;;;5052763;28;20891;-68
2021/07/13 06:10:13;;;;;;;7.70;3.90;;;;;;;;;;5051942;28;20426;-68
2021/07/13 06:12:40;;;;;;;8.10;4.43;;;;;;;;;;5053496;28;20449;-68
2021/07/13 06:15:06;;;;;;;6.90;3.70;;;;;;;;;;5063599;28;20447;-68
2021/07/13 06:17:32;;;;;;;8.63;4.00;;;;;;;;;;5072942;28;20427;-68
2021/07/13 06:19:58;;;;;;;4.43;3.73;;;;;;;;;;5059730;28;20418;-68
2021/07/13 06:22:24;;;;;;;8.07;3.60;;;;;;;;;;5052754;28;20398;-68
2021/07/13 06:24:50;;;;;;;7.00;4.03;;;;;;;;;;5051801;28;20448;-68
2021/07/13 06:27:16;;;;;;;11.10;5.00;;;;;;;;;;5052943;28;20402;-68
2021/07/13 06:29:42;;;;;;;9.30;4.40;;;;;;;;;;5052094;28;20437;-68
2021/07/13 06:32:09;;;;;;;9.60;4.50;;;;;;;;;;5058104;28;20494;-67
2021/07/13 06:34:35;;;;;;;8.80;3.97;;;;;;;;;;5063634;28;20475;-67
2021/07/13 06:37:01;;;;;;;4.70;3.53;;;;;;;;;;5052622;28;20402;-68
2021/07/13 06:39:27;;;;;;;4.80;3.57;;;;;;;;;;5051834;28;20825;-68
2021/07/13 06:41:54;;;;;;;6.20;4.20;;;;;;;;;;5052478;28;20410;-68
2021/07/13 06:44:20;;;;;;;6.67;4.10;;;;;;;;;;5051443;28;20450;-68
2021/07/13 06:46:46;;;;;;;5.90;3.23;;;;;;;;;;5052659;28;20755;-68
2021/07/13 06:49:12;;;;;;;4.43;3.07;;;;;;;;;;5050880;28;20512;-68
2021/07/13 06:51:38;;;;;;;4.93;3.30;;;;;;;;;;5071133;28;20460;-68
2021/07/13 06:54:04;;;;;;;7.93;3.93;;;;;;;;;;5068698;28;20833;-68
2021/07/13 06:56:30;;;;;;;6.93;4.23;;;;;;;;;;5052998;28;20417;-68
2021/07/13 06:58:57;;;;;;;5.13;3.27;;;;;;;;;;5051474;28;20444;-69
2021/07/13 07:01:23;;;;;;;5.67;4.40;;;;;;;;;;5052866;28;20497;-68
2021/07/13 07:03:49;;;;;;;5.50;4.00;;;;;;;;;;5052029;28;20914;-69
2021/07/13 07:06:15;;;;;;;5.87;3.23;;;;;;;;;;5051898;28;20516;-68
2021/07/13 07:08:41;;;;;;;5.17;3.77;;;;;;;;;;5052603;28;20402;-68
2021/07/13 07:11:07;;;;;;;6.33;4.20;;;;;;;;;;5049649;28;20503;-69
2021/07/13 07:13:33;;;;;;;4.67;4.17;;;;;;;;;;5029174;28;20452;-69
2021/07/13 07:15:59;;;;;;;9.60;5.13;;;;;;;;;;5035230;28;20421;-69
2021/07/13 07:18:25;;;;;;;5.90;4.53;;;;;;;;;;5043452;28;20440;-69
2021/07/13 07:20:51;;;;;;;7.37;4.33;;;;;;;;;;5052352;28;20788;-69
2021/07/13 07:23:17;;;;;;;6.70;4.87;;;;;;;;;;5055164;28;20432;-68
2021/07/13 07:25:44;;;;;;;6.00;4.80;;;;;;;;;;5050379;28;20418;-68
2021/07/13 07:28:11;;;;;;;13.30;4.73;;;;;;;;;;5047147;28;20975;-68
2021/07/13 07:30:38;;;;;;;7.07;4.83;;;;;;;;;;5048886;28;20436;-69
2021/07/13 07:33:04;;;;;;;6.90;4.80;;;;;;;;;;5053265;28;20492;-69
2021/07/13 07:35:30;;;;;;;4.90;4.17;;;;;;;;;;5058313;28;20465;-68
2021/07/13 07:37:57;;;;;;;5.30;4.00;;;;;;;;;;5037326;28;20486;-69
2021/07/13 07:40:24;;;;;;;10.00;5.33;;;;;;;;;;5068663;28;20429;-68
2021/07/13 07:42:51;;;;;;;5.50;5.00;;;;;;;;;;5075336;28;20407;-69
2021/07/13 07:45:18;;;;;;;9.10;4.83;;;;;;;;;;5056822;28;20819;-69
2021/07/13 07:47:44;;;;;;;5.97;4.40;;;;;;;;;;5053886;28;20421;-68
2021/07/13 07:50:11;;;;;;;7.10;5.37;;;;;;;;;;5053521;28;20834;-68
2021/07/13 07:52:37;;;;;;;4.00;3.60;;;;;;;;;;5058140;28;20456;-68
2021/07/13 07:55:04;;;;;;;5.47;4.97;;;;;;;;;;5048474;28;20454;-69
2021/07/13 07:57:30;;;;;;;12.80;4.70;;;;;;;;;;5034469;28;20402;-69
2021/07/13 07:59:56;;;;;;;5.20;4.70;;;;;;;;;;5039550;28;21811;-68
2021/07/13 08:02:22;;;;;;;5.63;4.57;;;;;;;;;;5054599;28;20429;-69
2021/07/13 08:04:48;;;;;;;5.70;4.33;;;;;;;;;;5052585;28;20813;-70
2021/07/13 08:07:15;;;;;;;4.80;4.40;;;;;;;;;;5052451;28;20770;-68
2021/07/13 08:09:41;;;;;;;10.40;5.53;;;;;;;;;;5053347;28;20796;-68
2021/07/13 08:12:07;;;;;;;5.13;4.63;;;;;;;;;;5053679;28;20547;-68
2021/07/13 08:14:33;;;;;;;8.93;4.93;;;;;;;;;;5065338;28;20514;-68
2021/07/13 08:16:59;;;;;;;6.87;5.77;;;;;;;;;;5054893;28;20753;-68
2021/07/13 08:19:25;;;;;;;7.27;5.83;;;;;;;;;;5054403;28;20390;-69
2021/07/13 08:21:51;;;;;;;7.27;5.80;;;;;;;;;;5071977;28;20444;-68
2021/07/13 08:24:18;;;;;;;7.10;5.63;;;;;;;;;;5053491;28;20425;-68
2021/07/13 08:26:46;;;;;;;5.07;4.40;;;;;;;;;;5045481;28;20817;-68
2021/07/13 08:29:12;;;;;;;6.00;5.03;;;;;;;;;;5054383;28;20905;-68
2021/07/13 08:31:38;;;;;;;7.30;6.60;;;;;;;;;;5052520;28;20457;-68
2021/07/13 08:34:04;;;;;;;7.10;6.33;;;;;;;;;;5053778;28;20499;-68
2021/07/13 08:36:30;;;;;;;7.40;5.60;;;;;;;;;;5051405;28;20456;-68
2021/07/13 08:38:57;;;;;;;7.13;6.43;;;;;;;;;;5053843;28;20417;-67
2021/07/13 08:41:23;;;;;;;6.17;5.60;;;;;;;;;;5069485;28;20956;-68
2021/07/13 08:43:50;;;;;;;7.03;5.90;;;;;;;;;;5053887;28;20480;-69
2021/07/13 08:46:18;;;;;;;7.40;6.70;;;;;;;;;;5052787;28;20457;-68
2021/07/13 08:48:44;;;;;;;9.80;6.33;;;;;;;;;;5055837;28;20436;-68
2021/07/13 08:51:10;;;;;;;6.77;5.47;;;;;;;;;;5067322;28;20452;-68
2021/07/13 08:53:36;;;;;;;8.07;7.07;;;;;;;;;;5074088;28;20743;-67
2021/07/13 08:56:02;;;;;;;7.93;7.13;;;;;;;;;;5059076;28;20428;-68
2021/07/13 08:58:28;;;;;;;8.70;6.63;;;;;;;;;;5053362;28;20417;-68
2021/07/13 09:00:56;;;;;;;8.50;6.93;;;;;;;;;;5052603;28;20809;-68
2021/07/13 09:03:22;;;;;;;8.53;7.50;;;;;;;;;;5053723;28;20425;-68
2021/07/13 09:05:50;;;;;;;7.30;6.60;;;;;;;;;;5052518;28;20508;-68
2021/07/13 09:08:16;;;;;;;6.93;5.50;;;;;;;;;;5052946;28;20496;-68
2021/07/13 09:11:00;;;;;;;8.27;7.00;;;;;;;;;;5052522;28;20504;-68
2021/07/13 09:13:28;;;;;;;8.13;6.63;;;;;;;;;;5052857;28;20512;-69
2021/07/13 09:15:57;;;;;;;7.07;6.40;;;;;;;;;;5052143;28;20421;-67
2021/07/13 09:18:37;;;;;;;9.33;5.63;;;;;;;;;;5053338;28;20413;-68
2021/07/13 09:21:11;;;;;;;6.90;6.20;;;;;;;;;;5052110;28;20430;-67
2021/07/13 09:23:57;;;;;;;8.20;7.10;;;;;;;;;;5053399;28;20437;-68
2021/07/13 09:26:35;;;;;;;7.40;6.17;;;;;;;;;;5052358;28;20503;-66
2021/07/13 09:29:01;;;;;;;7.77;6.97;;;;;;;;;;5033100;28;20390;-67
2021/07/13 09:31:27;;;;;;;7.63;6.60;;;;;;;;;;5062135;28;20970;-67
2021/07/13 09:33:53;;;;;;;7.23;6.50;;;;;;;;;;5057991;28;20536;-67
2021/07/13 09:36:19;;;;;;;8.07;7.30;;;;;;;;;;5051441;28;20504;-68
2021/07/13 09:38:45;;;;;;;9.13;8.13;;;;;;;;;;5052810;28;20820;-68
2021/07/13 09:41:13;;;;;;;7.97;7.10;;;;;;;;;;5051856;28;20457;-68
2021/07/13 09:43:43;;;;;;;8.30;7.50;;;;;;;;;;5051275;28;20465;-68
2021/07/13 09:46:28;;;;;;;8.10;7.37;;;;;;;;;;5048449;28;20421;-68
2021/07/13 09:49:07;;;;;;;8.00;6.23;;;;;;;;;;5052745;28;20421;-68
2021/07/13 09:51:33;;;;;;;11.63;9.23;;;;;;;;;;5051384;28;20457;-67
2021/07/13 09:53:59;;;;;;;11.50;8.23;;;;;;;;;;5051207;28;20456;-68
2021/07/13 09:56:42;;;;;;;8.87;7.97;;;;;;;;;;5051968;28;20479;-68
2021/07/13 09:59:08;;;;;;;8.63;7.83;;;;;;;;;;5052269;28;20421;-68
2021/07/13 10:01:35;;;;;;;6.67;6.00;;;;;;;;;;5051583;28;20433;-68
2021/07/13 10:04:02;;;;;;;9.03;3.73;;;;;;;;;;5051828;28;20441;-68
2021/07/13 10:06:32;;;;;;;4.47;2.70;;;;;;;;;;5051816;28;20461;-68
2021/07/13 10:09:00;;;;;;;2.53;1.90;;;;;;;;;;5052341;28;20925;-68
2021/07/13 10:11:29;;;;;;;2.87;1.90;;;;;;;;;;5051110;28;20973;-67
2021/07/13 10:13:58;;;;;;;2.17;1.30;;;;;;;;;;5051404;28;20797;-68
2021/07/13 10:16:25;;;;;;;2.43;1.37;;;;;;;;;;5051924;28;20919;-68
2021/07/13 10:18:51;;;;;;;2.93;1.30;;;;;;;;;;5052532;28;20409;-67
2021/07/13 10:21:17;;;;;;;1.80;0.90;;;;;;;;;;5057418;28;20439;-68
2021/07/13 10:23:44;;;;;;;2.23;1.00;;;;;;;;;;5046045;28;20448;-68
2021/07/13 10:26:11;;;;;;;2.80;1.07;;;;;;;;;;5042308;28;20460;-68
2021/07/13 10:28:38;;;;;;;1.90;0.90;;;;;;;;;;5052188;28;20739;-68
2021/07/13 10:31:04;;;;;;;1.90;1.00;;;;;;;;;;5050512;28;20510;-68
2021/07/13 10:33:39;;;;;;;1.53;0.70;;;;;;;;;;5052703;28;20559;-68
2021/07/13 10:36:24;;;;;;;2.37;0.90;;;;;;;;;;5050931;28;20520;-67
2021/07/13 10:39:10;;;;;;;2.77;0.90;;;;;;;;;;5052063;28;20386;-67
2021/07/13 10:41:36;;;;;;;1.43;0.70;;;;;;;;;;5057363;28;20769;-68
2021/07/13 10:44:02;;;;;;;2.13;0.80;;;;;;;;;;5049675;28;20439;-67
2021/07/13 10:46:28;;;;;;;1.50;0.80;;;;;;;;;;5050039;28;20433;-68
2021/07/13 10:49:17;;;;;;;3.30;0.97;;;;;;;;;;5045280;28;20418;-67
2021/07/13 10:51:43;;;;;;;5.63;1.10;;;;;;;;;;5048677;28;20611;-67
2021/07/13 10:54:10;;;;;;;2.97;0.90;;;;;;;;;;5053322;28;20452;-68
2021/07/13 10:56:36;;;;;;;2.70;1.00;;;;;;;;;;5059127;28;20412;-68
2021/07/13 10:59:20;;;;;;;1.50;0.80;;;;;;;;;;5074410;28;20582;-68
2021/07/13 11:01:46;;;;;;;3.50;0.90;;;;;;;;;;5065511;28;20453;-68
2021/07/13 11:04:12;;;;;;;1.40;0.70;;;;;;;;;;5055398;28;20421;-68
2021/07/13 11:06:40;;;;;;;6.40;0.80;;;;;;;;;;5056590;28;20944;-68
2021/07/13 11:09:21;;;;;;;1.83;0.70;;;;;;;;;;5055852;28;20844;-67
2021/07/13 11:11:47;;;;;;;3.30;1.10;;;;;;;;;;5053510;28;20682;-67
2021/07/13 11:14:15;;;;;;;3.03;0.80;;;;;;;;;;5055535;28;20457;-68
2021/07/13 11:16:42;;;;;;;2.77;1.10;;;;;;;;;;5047895;28;20506;-68
2021/07/13 11:19:12;;;;;;;2.00;1.10;;;;;;;;;;5063064;28;20765;-69
2021/07/13 11:21:41;;;;;;;1.47;0.63;;;;;;;;;;5068047;28;20953;-68
2021/07/13 11:24:07;;;;;;;1.50;0.73;;;;;;;;;;5056660;28;20433;-67
2021/07/13 11:26:39;;;;;;;3.30;1.13;;;;;;;;;;5056532;28;20429;-68
2021/07/13 11:29:07;;;;;;;1.70;0.60;;;;;;;;;;5057754;28;20789;-68
2021/07/13 11:31:40;;;;;;;1.50;0.80;;;;;;;;;;5059716;28;20480;-68
2021/07/13 11:34:10;;;;;;;2.80;1.00;;;;;;;;;;5062756;28;20445;-68
2021/07/13 11:36:41;;;;;;;4.90;0.90;;;;;;;;;;5062192;28;20434;-68
2021/07/13 11:39:29;;;;;;;2.37;0.90;;;;;;;;;;5059092;28;20481;-67
2021/07/13 11:41:56;;;;;;;1.97;0.90;;;;;;;;;;5058476;28;20429;-68
2021/07/13 11:44:22;;;;;;;2.20;0.70;;;;;;;;;;5056937;28;20448;-68
2021/07/13 11:46:50;;;;;;;2.00;1.00;;;;;;;;;;5054912;28;20429;-67
2021/07/13 11:49:20;;;;;;;2.93;0.80;;;;;;;;;;5055586;28;20410;-68
2021/07/13 11:51:48;;;;;;;3.27;1.53;;;;;;;;;;5050740;28;20461;-68
2021/07/13 11:54:15;;;;;;;1.40;0.80;;;;;;;;;;5046650;28;20430;-68
2021/07/13 11:56:52;;;;;;;1.83;1.00;;;;;;;;;;5054154;28;20433;-68
2021/07/13 11:59:19;;;;;;;1.67;0.80;;;;;;;;;;5034458;28;20462;-68
2021/07/13 12:01:47;;;;;;;1.57;0.70;;;;;;;;;;5049155;28;20528;-68
2021/07/13 12:04:13;;;;;;;1.60;0.90;;;;;;;;;;5054889;28;20426;-68
2021/07/13 12:06:40;;;;;;;1.90;0.60;;;;;;;;;;5052912;28;20902;-68
2021/07/13 12:09:08;;;;;;;6.00;1.00;;;;;;;;;;5055540;28;20492;-68
2021/07/13 12:11:35;;;;;;;1.70;0.63;;;;;;;;;;5053507;28;20457;-67
2021/07/13 12:14:02;;;;;;;8.63;0.80;;;;;;;;;;5054374;28;20426;-68
2021/07/13 12:16:30;;;;;;;1.60;0.70;;;;;;;;;;5052904;28;20430;-69
2021/07/13 12:19:01;;;;;;;2.53;0.90;;;;;;;;;;5053785;28;20468;-68
2021/07/13 12:21:27;;;;;;;1.33;0.60;;;;;;;;;;5053934;28;20426;-69
2021/07/13 12:23:54;;;;;;;1.70;0.80;;;;;;;;;;5054564;28;20419;-69
2021/07/13 12:26:28;;;;;;;1.37;0.60;;;;;;;;;;5055299;28;20545;-67
2021/07/13 12:29:10;;;;;;;6.60;0.77;;;;;;;;;;5055439;28;20406;-68
2021/07/13 12:31:37;;;;;;;1.40;0.70;;;;;;;;;;5053379;28;20512;-68
2021/07/13 12:34:05;;;;;;;1.40;0.70;;;;;;;;;;5053964;28;20759;-68
2021/07/13 12:36:34;;;;;;;1.33;0.60;;;;;;;;;;5053901;28;20432;-68
2021/07/13 12:39:12;;;;;;;1.50;0.60;;;;;;;;;;5054631;28;20406;-68
2021/07/13 12:41:38;;;;;;;2.63;1.27;;;;;;;;;;5053794;28;20422;-68
2021/07/13 12:44:23;;;;;;;2.27;0.70;;;;;;;;;;5054093;28;20964;-68
2021/07/13 12:46:49;;;;;;;1.60;0.77;;;;;;;;;;5053441;28;20494;-67
2021/07/13 12:49:15;;;;;;;1.90;1.17;;;;;;;;;;5054845;28;20476;-67
2021/07/13 12:51:41;;;;;;;1.73;0.77;;;;;;;;;;5058255;28;20552;-68
2021/07/13 12:54:08;;;;;;;1.50;0.60;;;;;;;;;;5054239;28;20838;-68
2021/07/13 12:56:34;;;;;;;1.80;1.10;;;;;;;;;;5053608;28;20468;-68
2021/07/13 12:59:07;;;;;;;2.33;1.03;;;;;;;;;;5054678;28;20425;-68
2021/07/13 13:01:34;;;;;;;3.27;0.80;;;;;;;;;;5060495;28;20991;-68
2021/07/13 13:04:16;;;;;;;1.43;0.63;;;;;;;;;;5054322;28;20453;-68
2021/07/13 13:06:43;;;;;;;1.50;0.70;;;;;;;;;;5053051;28;20513;-68
2021/07/13 13:09:13;;;;;;;2.23;0.97;;;;;;;;;;5054086;28;20421;-68
2021/07/13 13:11:40;;;;;;;1.70;0.90;;;;;;;;;;5053130;28;20458;-68
2021/07/13 13:14:08;;;;;;;1.30;0.73;;;;;;;;;;5053639;28;20426;-68
2021/07/13 13:16:38;;;;;;;1.80;0.80;;;;;;;;;;5052403;28;20459;-68
2021/07/13 13:19:05;;;;;;;3.73;1.00;;;;;;;;;;5053830;28;20401;-68
2021/07/13 13:21:32;;;;;;;1.60;0.80;;;;;;;;;;5051760;28;20766;-67
2021/07/13 13:24:02;;;;;;;4.40;0.90;;;;;;;;;;5053652;28;20470;-68
2021/07/13 13:26:28;;;;;;;1.50;0.70;;;;;;;;;;5054597;28;20873;-69
2021/07/13 13:28:55;;;;;;;2.23;1.00;;;;;;;;;;5073624;28;20463;-68
2021/07/13 13:31:21;;;;;;;1.83;0.90;;;;;;;;;;5070968;28;20444;-68
2021/07/13 13:33:52;;;;;;;2.70;1.10;;;;;;;;;;5063766;28;20449;-67
2021/07/13 13:36:29;;;;;;;1.70;0.90;;;;;;;;;;5053360;28;20426;-68
2021/07/13 13:39:38;;;;;;;3.23;1.40;;;;;;;;;;5053566;28;20476;-68
2021/07/13 13:41:45;;;;;;;1.80;0.80;;;;;;;;;;5051419;28;20441;-67
2021/07/13 13:44:12;;;;;;;2.43;0.90;;;;;;;;;;5052434;28;20426;-67
2021/07/13 13:46:38;;;;;;;1.90;1.07;;;;;;;;;;5051726;28;20492;-67
2021/07/13 13:49:05;;;;;;;5.43;1.40;;;;;;;;;;5052845;28;20902;-68
2021/07/13 13:51:31;;;;;;;29.17;3.97;;;;;;;;;;5050962;28;20500;-72
2021/07/13 13:53:57;;;;;;;3.13;1.10;;;;;;;;;;5033413;28;20426;-71
2021/07/13 13:56:25;;;;;;;1.80;1.27;;;;;;;;;;5034784;28;20456;-71
2021/07/13 13:58:52;;;;;;;2.20;1.40;;;;;;;;;;5053860;28;20441;-71
2021/07/13 14:01:19;;;;;;;3.43;1.43;;;;;;;;;;5055250;28;20410;-71
2021/07/13 14:03:46;;;;;;;2.60;1.90;;;;;;;;;;5054027;28;20453;-70
2021/07/13 14:06:13;;;;;;;2.93;1.80;;;;;;;;;;5055171;28;20528;-70
2021/07/13 14:08:39;;;;;;;2.90;1.40;;;;;;;;;;5053053;28;20422;-70
2021/07/13 14:11:06;;;;;;;2.87;1.23;;;;;;;;;;5054858;28;20764;-70
2021/07/13 14:13:32;;;;;;;2.23;1.30;;;;;;;;;;5053605;28;20456;-70
2021/07/13 14:15:59;;;;;;;2.10;1.20;;;;;;;;;;5053880;28;20398;-70
2021/07/13 14:18:26;;;;;;;2.70;1.30;;;;;;;;;;5053652;28;20422;-70
2021/07/13 14:20:53;;;;;;;2.20;1.47;;;;;;;;;;5055461;28;20807;-70
2021/07/13 14:23:19;;;;;;;1.70;1.20;;;;;;;;;;5054677;28;20584;-69
2021/07/13 14:25:45;;;;;;;2.03;1.20;;;;;;;;;;5054123;28;20972;-69
2021/07/13 14:28:11;;;;;;;2.10;1.33;;;;;;;;;;5053334;28;20532;-70
2021/07/13 14:30:37;;;;;;;2.90;1.50;;;;;;;;;;5058160;28;20409;-70
2021/07/13 14:33:04;;;;;;;3.10;1.53;;;;;;;;;;5056421;28;20489;-70
2021/07/13 14:35:30;;;;;;;4.30;1.40;;;;;;;;;;5058665;28;20397;-69
2021/07/13 14:37:57;;;;;;;3.53;1.67;;;;;;;;;;5056872;28;20432;-70
2021/07/13 14:40:23;;;;;;;4.80;1.23;;;;;;;;;;5059218;28;20406;-69
2021/07/13 14:42:49;;;;;;;2.70;1.70;;;;;;;;;;5061140;28;20435;-69
2021/07/13 14:45:15;;;;;;;3.53;2.17;;;;;;;;;;5037877;28;20819;-69